Time;durP1;ratioP1;P1;durP2;ratioP2;P2;SDS_P1;SDS_P2;PMS_P1;PMS_P2;Temp;Humidity;BMP_temperature;BMP_pressure;BME280_temperature;BME280_humidity;BME280_pressure;Samples;Min_cycle;Max_cycle;Signal;HPM_P1;HPM_P2
2021/06/20 00:01:16;;;;;;;13.45;5.60;;;;;;;21.00;96.06;100454.45;1722380;81;21037;-57
2021/06/20 00:03:42;;;;;;;13.62;8.08;;;;;;;21.04;96.49;100483.17;1723320;81;21296;-56
2021/06/20 00:06:36;;;;;;;13.98;5.10;;;;;;;21.05;96.37;100495.80;1721914;82;20975;-57
2021/06/20 00:09:09;;;;;;;10.10;4.10;;;;;;;21.07;95.91;100497.05;1690464;83;21031;-57
2021/06/20 00:11:39;;;;;;;11.22;4.50;;;;;;;21.09;96.40;100516.34;1703081;82;20965;-56
2021/06/20 00:14:08;;;;;;;12.23;4.12;;;;;;;21.12;97.05;100526.14;1721264;81;21043;-56
2021/06/20 00:16:35;;;;;;;12.85;4.45;;;;;;;21.12;98.26;100542.50;1707232;82;22168;-56
2021/06/20 00:19:03;;;;;;;12.80;4.90;;;;;;;21.06;99.53;100556.13;1712367;82;20961;-56
2021/06/20 00:21:29;;;;;;;11.63;5.10;;;;;;;20.98;100.00;100555.91;1719331;82;20950;-56
2021/06/20 00:23:56;;;;;;;28.45;5.97;;;;;;;20.92;100.00;100565.44;1737054;82;20985;-57
2021/06/20 00:26:23;;;;;;;23.05;6.08;;;;;;;20.79;100.00;100546.48;1718046;82;21608;-56
2021/06/20 00:28:51;;;;;;;24.00;6.00;;;;;;;20.61;100.00;100502.56;1708763;82;21863;-57
2021/06/20 00:31:17;;;;;;;17.90;4.85;;;;;;;20.44;100.00;100374.58;1703620;82;20925;-57
2021/06/20 00:33:44;;;;;;;13.18;2.50;;;;;;;20.30;100.00;100352.58;1702829;82;20972;-60
2021/06/20 00:36:11;;;;;;;22.77;5.03;;;;;;;20.10;100.00;100363.76;1697637;82;21008;-59
2021/06/20 00:38:37;;;;;;;27.20;5.67;;;;;;;19.88;100.00;100347.79;1707280;82;20992;-59
2021/06/20 00:41:06;;;;;;;20.20;4.62;;;;;;;19.69;100.00;100328.02;1720122;81;21416;-58
2021/06/20 00:43:32;;;;;;;10.25;2.67;;;;;;;19.57;100.00;100336.67;1701353;82;21458;-58
2021/06/20 00:46:00;;;;;;;10.70;2.42;;;;;;;19.47;100.00;100340.10;1703547;82;21020;-59
2021/06/20 00:48:26;;;;;;;8.68;2.00;;;;;;;19.40;100.00;100349.73;1707533;82;21466;-58
2021/06/20 00:50:56;;;;;;;9.30;3.00;;;;;;;19.36;100.00;100336.02;1710607;82;21545;-59
2021/06/20 00:53:23;;;;;;;17.60;5.58;;;;;;;19.32;100.00;100323.64;1701900;82;21930;-59
2021/06/20 00:55:50;;;;;;;17.07;5.95;;;;;;;19.30;100.00;100306.11;1717971;82;20984;-58
2021/06/20 00:58:20;;;;;;;21.52;6.97;;;;;;;19.30;100.00;100306.11;1718215;82;21128;-57
2021/06/20 01:00:46;;;;;;;19.32;5.37;;;;;;;19.31;100.00;100302.41;1718709;82;20935;-57
2021/06/20 01:03:13;;;;;;;17.62;4.90;;;;;;;19.31;100.00;100304.24;1699740;82;21116;-57
2021/06/20 01:05:40;;;;;;;19.62;5.15;;;;;;;19.30;100.00;100310.66;1696680;82;21522;-57
2021/06/20 01:08:07;;;;;;;12.98;3.80;;;;;;;19.30;100.00;100310.19;1700668;82;20995;-57
2021/06/20 01:10:37;;;;;;;11.15;4.40;;;;;;;19.30;100.00;100299.31;1635079;82;21126;-56
2021/06/20 01:13:06;;;;;;;15.85;5.67;;;;;;;19.29;100.00;100302.14;1687108;83;20999;-57
2021/06/20 01:15:35;;;;;;;12.20;7.12;;;;;;;19.30;100.00;100295.72;1720081;81;21042;-57
2021/06/20 01:18:01;;;;;;;15.28;8.65;;;;;;;19.32;100.00;100287.83;1695071;82;21292;-55
2021/06/20 01:20:28;;;;;;;13.15;9.15;;;;;;;19.38;100.00;100291.92;1703362;82;21411;-56
2021/06/20 01:22:55;;;;;;;13.08;8.05;;;;;;;19.44;100.00;100296.86;1705222;82;20997;-56
2021/06/20 01:25:23;;;;;;;17.50;8.20;;;;;;;19.50;100.00;100300.06;1700694;83;20916;-56
2021/06/20 01:27:53;;;;;;;12.70;8.90;;;;;;;19.54;100.00;100298.83;1702502;82;21110;-56
2021/06/20 01:30:23;;;;;;;12.35;8.30;;;;;;;19.56;100.00;100302.28;1703742;83;21111;-56
2021/06/20 01:32:51;;;;;;;14.10;8.50;;;;;;;19.59;100.00;100303.42;1701464;82;20988;-56
2021/06/20 01:35:17;;;;;;;16.17;10.00;;;;;;;19.62;100.00;100304.53;1720253;81;20923;-56
2021/06/20 01:37:44;;;;;;;25.08;16.17;;;;;;;19.64;100.00;100294.39;1724561;81;21111;-56
2021/06/20 01:40:12;;;;;;;40.45;27.27;;;;;;;19.67;100.00;100295.98;1723485;82;21035;-56
2021/06/20 01:42:38;;;;;;;23.55;15.58;;;;;;;19.72;100.00;100304.66;1716593;82;22189;-57
2021/06/20 01:45:07;;;;;;;16.37;12.55;;;;;;;19.76;100.00;100290.66;1711636;82;20980;-57
2021/06/20 01:47:34;;;;;;;21.07;13.08;;;;;;;19.79;100.00;100288.20;1715486;82;21112;-58
2021/06/20 01:50:04;;;;;;;22.27;12.93;;;;;;;19.82;100.00;100268.05;1712950;82;20967;-55
2021/06/20 01:52:30;;;;;;;29.40;15.63;;;;;;;19.82;100.00;100264.83;1711978;82;21439;-56
2021/06/20 01:54:57;;;;;;;17.98;14.33;;;;;;;19.84;100.00;100260.12;1716044;82;21134;-56
2021/06/20 01:57:29;;;;;;;21.60;12.75;;;;;;;19.87;100.00;100273.97;1715264;82;21067;-56
2021/06/20 01:59:57;;;;;;;20.08;14.95;;;;;;;19.89;100.00;100292.39;1714999;82;20942;-57
2021/06/20 02:02:25;;;;;;;18.73;13.62;;;;;;;19.94;100.00;100309.23;1733598;81;39533;-56
2021/06/20 02:04:54;;;;;;;16.67;8.60;;;;;;;19.96;100.00;100328.16;1736194;80;20951;-56
2021/06/20 02:07:25;;;;;;;14.23;6.30;;;;;;;19.88;100.00;100330.11;1736677;81;20937;-56
2021/06/20 02:09:53;;;;;;;9.88;6.83;;;;;;;19.75;100.00;100331.08;1732662;81;21056;-56
2021/06/20 02:12:22;;;;;;;12.50;8.10;;;;;;;19.67;100.00;100324.05;1741142;81;21492;-56
2021/06/20 02:14:49;;;;;;;18.23;11.20;;;;;;;19.65;100.00;100307.00;1744146;81;22116;-56
2021/06/20 02:17:30;;;;;;;22.05;15.58;;;;;;;19.64;100.00;100294.87;1737327;81;21551;-57
2021/06/20 02:20:14;;;;;;;12.90;9.80;;;;;;;19.56;100.00;100315.88;1732668;81;21610;-57
2021/06/20 02:22:40;;;;;;;10.18;5.70;;;;;;;19.46;100.00;100347.89;1732806;81;21010;-57
2021/06/20 02:25:12;;;;;;;12.25;7.08;;;;;;;19.39;100.00;100365.67;1736930;81;20956;-56
2021/06/20 02:27:38;;;;;;;15.50;6.92;;;;;;;19.35;100.00;100335.66;1734088;81;20999;-56
2021/06/20 02:30:06;;;;;;;24.63;16.48;;;;;;;19.34;100.00;100332.53;1735212;81;21557;-57
2021/06/20 02:32:33;;;;;;;16.32;12.35;;;;;;;19.32;100.00;100341.30;1737364;81;21426;-57
2021/06/20 02:34:59;;;;;;;9.75;8.05;;;;;;;19.29;100.00;100370.97;1733206;81;21414;-58
2021/06/20 02:37:26;;;;;;;10.88;8.15;;;;;;;19.23;100.00;100379.61;1733895;81;21358;-57
2021/06/20 02:39:55;;;;;;;14.55;8.20;;;;;;;19.17;100.00;100386.37;1734819;81;21721;-56
2021/06/20 02:42:22;;;;;;;12.95;6.50;;;;;;;19.10;100.00;100412.27;1735369;81;21113;-57
2021/06/20 02:44:49;;;;;;;6.65;4.00;;;;;;;19.08;100.00;100406.08;1736857;82;21305;-56
2021/06/20 02:47:16;;;;;;;9.73;4.37;;;;;;;19.06;100.00;100390.39;1739612;81;20941;-56
2021/06/20 02:49:44;;;;;;;7.03;3.47;;;;;;;19.02;100.00;100370.77;1739480;81;20925;-56
2021/06/20 02:52:12;;;;;;;10.58;3.80;;;;;;;18.92;100.00;100369.69;1726561;81;21508;-56
2021/06/20 02:54:49;;;;;;;8.43;6.65;;;;;;;18.89;100.00;100370.78;1735205;81;21065;-56
2021/06/20 02:57:07;;;;;;;19.30;13.88;;;;;;;18.88;100.00;100347.32;1735982;81;21143;-56
2021/06/20 02:59:34;;;;;;;15.48;11.97;;;;;;;18.82;100.00;100342.37;1727377;81;21086;-56
2021/06/20 03:02:00;;;;;;;16.10;12.03;;;;;;;18.75;100.00;100343.83;1740058;81;21024;-56
2021/06/20 03:04:27;;;;;;;17.05;12.05;;;;;;;18.72;100.00;100346.78;1738115;81;22347;-56
2021/06/20 03:06:55;;;;;;;16.10;12.58;;;;;;;18.66;100.00;100339.08;1736192;81;20967;-56
2021/06/20 03:09:22;;;;;;;9.68;6.67;;;;;;;18.63;100.00;100329.34;1736845;81;21141;-55
2021/06/20 03:11:49;;;;;;;17.80;13.85;;;;;;;18.60;100.00;100330.94;1743165;81;21048;-56
2021/06/20 03:14:15;;;;;;;14.80;7.85;;;;;;;18.59;100.00;100334.12;1753768;80;21000;-56
2021/06/20 03:16:43;;;;;;;15.72;8.13;;;;;;;18.58;100.00;100335.61;1721528;81;21074;-55
2021/06/20 03:19:09;;;;;;;19.85;14.10;;;;;;;18.56;100.00;100318.55;1748904;80;21053;-55
2021/06/20 03:21:36;;;;;;;20.92;18.07;;;;;;;18.56;100.00;100316.72;1715434;81;21237;-55
2021/06/20 03:24:04;;;;;;;21.97;17.92;;;;;;;18.52;100.00;100310.27;1718563;81;21035;-55
2021/06/20 03:26:31;;;;;;;17.95;9.65;;;;;;;18.49;100.00;100335.81;1728055;81;21034;-55
2021/06/20 03:28:58;;;;;;;16.60;12.00;;;;;;;18.47;100.00;100314.20;1723423;81;20961;-54
2021/06/20 03:31:25;;;;;;;13.68;10.98;;;;;;;18.46;100.00;100306.20;1752546;80;20995;-55
2021/06/20 03:33:52;;;;;;;16.57;11.88;;;;;;;18.45;100.00;100320.23;1747223;80;21127;-55
2021/06/20 03:36:20;;;;;;;12.95;9.33;;;;;;;18.45;100.00;100311.22;1755507;80;21101;-55
2021/06/20 03:38:47;;;;;;;11.75;3.87;;;;;;;18.44;100.00;100335.27;1738391;80;22084;-55
2021/06/20 03:41:14;;;;;;;10.72;2.92;;;;;;;18.44;100.00;100325.77;1733589;81;21132;-55
2021/06/20 03:43:42;;;;;;;10.05;2.95;;;;;;;18.47;100.00;100343.21;1735832;81;21003;-55
2021/06/20 03:46:10;;;;;;;8.48;2.65;;;;;;;18.49;100.00;100339.89;1750555;80;21081;-56
2021/06/20 03:48:38;;;;;;;8.20;2.80;;;;;;;18.49;100.00;100334.45;1732015;81;21602;-56
2021/06/20 03:51:05;;;;;;;9.38;2.80;;;;;;;18.53;100.00;100353.59;1732749;81;20908;-54
2021/06/20 03:53:32;;;;;;;7.90;3.45;;;;;;;18.55;100.00;100348.92;1735999;81;21414;-57
2021/06/20 03:55:59;;;;;;;5.90;2.75;;;;;;;18.58;100.00;100351.39;1742362;81;21031;-56
2021/06/20 03:58:26;;;;;;;7.37;3.08;;;;;;;18.63;100.00;100355.61;1740206;81;21716;-55
2021/06/20 04:00:53;;;;;;;4.83;2.92;;;;;;;18.65;100.00;100348.21;1729913;81;34621;-55
2021/06/20 04:03:20;;;;;;;6.17;2.58;;;;;;;18.66;100.00;100344.51;1711810;82;21066;-61
2021/06/20 04:05:46;;;;;;;9.40;3.15;;;;;;;18.68;100.00;100347.97;1706528;82;21383;-60
2021/06/20 04:08:13;;;;;;;9.08;4.05;;;;;;;18.72;100.00;100359.00;1710866;82;20955;-60
2021/06/20 04:10:39;;;;;;;6.67;3.30;;;;;;;18.76;100.00;100386.30;1708524;82;22297;-60
2021/06/20 04:13:06;;;;;;;10.45;3.30;;;;;;;18.78;100.00;100382.97;1709295;82;21464;-61
2021/06/20 04:15:35;;;;;;;7.05;3.30;;;;;;;18.84;100.00;100365.34;1702335;82;21442;-61
2021/06/20 04:18:02;;;;;;;11.85;3.50;;;;;;;18.86;100.00;100346.58;1722350;81;20972;-61
2021/06/20 04:20:28;;;;;;;16.40;3.95;;;;;;;18.90;100.00;100348.10;1722045;81;21533;-60
2021/06/20 04:22:55;;;;;;;8.83;3.35;;;;;;;18.92;100.00;100345.75;1718249;81;21671;-60
2021/06/20 04:25:21;;;;;;;8.48;3.65;;;;;;;18.90;100.00;100337.23;1731808;81;21003;-60
2021/06/20 04:27:49;;;;;;;7.08;3.67;;;;;;;18.88;100.00;100342.39;1740664;81;21438;-61
2021/06/20 04:30:18;;;;;;;9.15;4.30;;;;;;;18.86;100.00;100330.28;1696187;83;21802;-59
2021/06/20 04:32:45;;;;;;;9.98;4.20;;;;;;;18.85;100.00;100317.69;1725440;81;20979;-60
2021/06/20 04:35:12;;;;;;;9.53;3.92;;;;;;;18.85;100.00;100316.84;1699350;81;21011;-61
2021/06/20 04:37:39;;;;;;;10.63;4.28;;;;;;;18.85;100.00;100317.69;1691022;83;21523;-60
2021/06/20 04:40:07;;;;;;;8.30;3.70;;;;;;;18.85;100.00;100319.05;1703237;82;21746;-59
2021/06/20 04:42:37;;;;;;;9.53;4.58;;;;;;;18.87;100.00;100321.66;1703460;82;21091;-60
2021/06/20 04:45:03;;;;;;;4.83;3.40;;;;;;;18.91;100.00;100332.66;1706481;82;20989;-59
2021/06/20 04:47:30;;;;;;;8.50;3.90;;;;;;;18.94;100.00;100336.48;1702518;82;21761;-60
2021/06/20 04:49:57;;;;;;;10.82;4.55;;;;;;;18.99;100.00;100332.95;1703748;82;21012;-62
2021/06/20 04:52:24;;;;;;;10.98;4.00;;;;;;;19.04;100.00;100325.81;1705640;82;21107;-61
2021/06/20 04:54:52;;;;;;;5.92;3.77;;;;;;;19.10;100.00;100309.02;1719436;81;21094;-60
2021/06/20 04:57:25;;;;;;;7.58;3.33;;;;;;;19.14;100.00;100302.38;1702161;82;21093;-62
2021/06/20 04:59:54;;;;;;;12.78;3.90;;;;;;;19.22;100.00;100314.50;1698047;83;21445;-61
2021/06/20 05:02:21;;;;;;;13.43;4.47;;;;;;;19.28;100.00;100309.92;1737719;80;36021;-61
2021/06/20 05:04:48;;;;;;;7.42;4.10;;;;;;;19.40;100.00;100317.12;1753718;81;21094;-61
2021/06/20 05:07:15;;;;;;;10.18;3.83;;;;;;;19.49;100.00;100320.08;1754997;80;20991;-61
2021/06/20 05:09:43;;;;;;;10.53;3.58;;;;;;;19.57;100.00;100336.67;1754145;80;21422;-60
2021/06/20 05:12:10;;;;;;;7.78;4.22;;;;;;;19.67;100.00;100338.13;1754124;80;21851;-59
2021/06/20 05:14:46;;;;;;;6.45;3.98;;;;;;;19.80;100.00;100347.55;1753289;80;21291;-60
2021/06/20 05:17:11;;;;;;;11.20;4.42;;;;;;;19.87;100.00;100351.50;1752002;80;21623;-60
2021/06/20 05:19:38;;;;;;;9.13;4.15;;;;;;;19.92;100.00;100356.09;1755521;81;21397;-60
2021/06/20 05:22:04;;;;;;;14.80;4.40;;;;;;;19.98;100.00;100362.39;1755000;80;20975;-60
2021/06/20 05:24:31;;;;;;;9.40;4.10;;;;;;;20.07;100.00;100365.38;1756781;80;21148;-59
2021/06/20 05:26:57;;;;;;;8.00;3.90;;;;;;;20.22;100.00;100357.30;1750747;81;20951;-61
2021/06/20 05:29:23;;;;;;;8.08;4.45;;;;;;;20.38;100.00;100346.03;1754512;81;20991;-61
2021/06/20 05:31:50;;;;;;;13.08;4.00;;;;;;;20.58;100.00;100335.33;1752731;81;20976;-60
2021/06/20 05:34:16;;;;;;;8.83;3.80;;;;;;;20.73;100.00;100329.08;1773875;80;20988;-60
2021/06/20 05:36:44;;;;;;;7.95;3.85;;;;;;;20.85;100.00;100325.33;1759611;80;21730;-60
2021/06/20 05:39:10;;;;;;;10.40;3.70;;;;;;;20.93;100.00;100315.14;1764242;79;21046;-61
2021/06/20 05:41:37;;;;;;;7.78;3.35;;;;;;;21.03;100.00;100322.02;1771461;80;20963;-60
2021/06/20 05:44:04;;;;;;;7.80;3.50;;;;;;;21.18;100.00;100327.52;1737876;80;21617;-60
2021/06/20 05:46:31;;;;;;;8.03;3.72;;;;;;;21.33;100.00;100331.25;1760770;80;21008;-59
2021/06/20 05:48:57;;;;;;;11.88;3.30;;;;;;;21.41;100.00;100340.12;1751011;80;21104;-59
2021/06/20 05:51:23;;;;;;;7.70;2.98;;;;;;;21.43;100.00;100367.62;1753890;80;20880;-58
2021/06/20 05:53:50;;;;;;;7.47;3.17;;;;;;;21.55;100.00;100360.72;1754142;80;21076;-60
2021/06/20 05:56:16;;;;;;;13.20;4.22;;;;;;;21.64;100.00;100334.02;1748916;81;21404;-59
2021/06/20 05:58:43;;;;;;;12.75;3.40;;;;;;;21.74;100.00;100357.28;1756124;80;21402;-59
2021/06/20 06:01:09;;;;;;;14.20;3.58;;;;;;;21.83;100.00;100373.34;1751290;80;43164;-59
2021/06/20 06:03:37;;;;;;;11.25;3.52;;;;;;;21.88;100.00;100366.48;1759260;80;21003;-59
2021/06/20 06:06:03;;;;;;;13.88;3.42;;;;;;;21.98;100.00;100369.22;1746190;81;21051;-60
2021/06/20 06:08:30;;;;;;;10.03;3.00;;;;;;;22.07;97.47;100363.44;1745724;80;21450;-60
2021/06/20 06:10:57;;;;;;;9.60;3.02;;;;;;;22.15;97.53;100362.75;1739988;80;21067;-60
2021/06/20 06:13:24;;;;;;;8.30;3.55;;;;;;;22.23;96.66;100377.08;1761608;79;21403;-60
2021/06/20 06:15:51;;;;;;;7.75;2.85;;;;;;;22.32;98.70;100385.30;1745368;80;21161;-60
2021/06/20 06:18:17;;;;;;;9.95;3.55;;;;;;;22.37;96.39;100382.16;1749449;80;21012;-60
2021/06/20 06:20:44;;;;;;;9.60;3.30;;;;;;;22.44;96.23;100386.04;1750096;80;21576;-60
2021/06/20 06:23:11;;;;;;;10.93;3.30;;;;;;;22.54;97.74;100382.48;1749026;80;21534;-61
2021/06/20 06:25:38;;;;;;;12.28;3.65;;;;;;;22.57;92.64;100378.98;1749557;80;21433;-61
2021/06/20 06:28:05;;;;;;;9.20;3.08;;;;;;;22.64;93.90;100385.23;1749604;80;21041;-61
2021/06/20 06:30:32;;;;;;;8.23;3.05;;;;;;;22.70;95.07;100385.54;1753516;80;21074;-61
2021/06/20 06:32:58;;;;;;;8.25;2.92;;;;;;;22.73;88.24;100374.84;1750689;80;20918;-61
2021/06/20 06:35:25;;;;;;;13.13;2.77;;;;;;;22.75;90.63;100390.06;1751758;80;21077;-59
2021/06/20 06:37:52;;;;;;;10.60;3.17;;;;;;;22.78;90.77;100390.30;1750192;80;21810;-60
2021/06/20 06:40:18;;;;;;;17.07;3.02;;;;;;;22.86;92.83;100386.86;1755671;80;21012;-60
2021/06/20 06:42:45;;;;;;;11.18;3.12;;;;;;;22.89;90.32;100373.78;1747455;80;21435;-60
2021/06/20 06:45:12;;;;;;;11.78;2.75;;;;;;;22.88;90.86;100372.55;1752478;80;20965;-60
2021/06/20 06:47:39;;;;;;;7.72;3.02;;;;;;;22.89;90.58;100379.24;1749135;80;20975;-61
2021/06/20 06:50:06;;;;;;;14.95;3.00;;;;;;;22.96;93.05;100389.59;1750461;80;21072;-60
2021/06/20 06:52:33;;;;;;;11.48;3.50;;;;;;;22.96;89.47;100420.51;1754410;80;21570;-60
2021/06/20 06:55:00;;;;;;;15.23;3.37;;;;;;;22.95;92.77;100375.57;1752484;80;21028;-60
2021/06/20 06:57:27;;;;;;;17.35;3.00;;;;;;;22.95;94.72;100382.41;1753326;80;21079;-61
2021/06/20 06:59:54;;;;;;;12.78;3.45;;;;;;;23.03;93.75;100372.97;1752447;80;20957;-60
2021/06/20 07:02:25;;;;;;;13.10;3.33;;;;;;;23.19;94.89;100364.17;1746316;80;35890;-61
2021/06/20 07:04:49;;;;;;;16.57;3.90;;;;;;;23.29;94.26;100368.30;1740394;80;21003;-61
2021/06/20 07:07:16;;;;;;;15.43;3.70;;;;;;;23.30;93.06;100367.28;1753165;80;21033;-60
2021/06/20 07:09:43;;;;;;;10.78;3.62;;;;;;;23.29;91.44;100360.09;1753066;80;21115;-60
2021/06/20 07:12:10;;;;;;;10.90;3.27;;;;;;;23.31;89.68;100377.21;1752618;80;21135;-55
2021/06/20 07:14:37;;;;;;;13.18;3.20;;;;;;;23.23;85.10;100386.14;1751373;80;21095;-55
2021/06/20 07:17:04;;;;;;;10.93;3.90;;;;;;;23.14;88.33;100371.47;1750953;80;20966;-55
2021/06/20 07:19:33;;;;;;;14.23;4.00;;;;;;;23.14;91.63;100376.94;1752233;80;21406;-56
2021/06/20 07:21:59;;;;;;;15.50;4.22;;;;;;;23.20;92.41;100359.58;1751094;80;21044;-56
2021/06/20 07:24:25;;;;;;;12.55;4.15;;;;;;;23.24;87.95;100349.58;1752498;80;20924;-56
2021/06/20 07:26:52;;;;;;;16.87;4.25;;;;;;;23.23;88.75;100358.80;1757469;80;21128;-55
2021/06/20 07:29:18;;;;;;;19.95;4.03;;;;;;;23.25;91.07;100360.00;1760275;80;21022;-56
2021/06/20 07:31:45;;;;;;;19.77;4.17;;;;;;;23.30;90.08;100356.34;1752178;80;21142;-56
2021/06/20 07:34:11;;;;;;;18.82;4.08;;;;;;;23.33;88.06;100361.55;1757417;80;21636;-56
2021/06/20 07:36:38;;;;;;;20.27;4.15;;;;;;;23.35;89.17;100368.22;1755110;80;21447;-56
2021/06/20 07:39:05;;;;;;;10.98;3.75;;;;;;;23.35;89.67;100358.65;1754886;80;21940;-56
2021/06/20 07:41:31;;;;;;;14.18;4.10;;;;;;;23.46;89.88;100356.61;1753810;80;20964;-56
2021/06/20 07:43:58;;;;;;;16.95;3.98;;;;;;;23.57;87.80;100365.66;1751405;80;21008;-56
2021/06/20 07:46:24;;;;;;;16.50;3.77;;;;;;;23.65;90.85;100363.03;1764011;80;21011;-56
2021/06/20 07:48:51;;;;;;;16.97;4.95;;;;;;;23.67;88.92;100363.75;1765623;79;20886;-60
2021/06/20 07:51:18;;;;;;;13.72;3.90;;;;;;;23.61;88.31;100362.98;1771291;80;21103;-61
2021/06/20 07:53:44;;;;;;;18.02;4.47;;;;;;;23.52;89.78;100373.43;1775286;79;20900;-60
2021/06/20 07:56:11;;;;;;;14.47;4.40;;;;;;;23.48;89.37;100378.84;1762514;79;20944;-61
2021/06/20 07:58:37;;;;;;;16.73;4.45;;;;;;;23.38;87.79;100372.91;1714770;82;21083;-60
2021/06/20 08:01:04;;;;;;;13.60;3.60;;;;;;;23.31;91.90;100371.74;1753059;80;21494;-61
2021/06/20 08:03:32;;;;;;;18.23;3.85;;;;;;;23.35;91.88;100383.27;1753073;80;21801;-60
2021/06/20 08:06:01;;;;;;;17.17;3.65;;;;;;;23.32;86.48;100390.75;1751675;80;21011;-61
2021/06/20 08:08:27;;;;;;;17.12;4.20;;;;;;;23.26;87.16;100400.04;1752899;80;20903;-60
2021/06/20 08:10:53;;;;;;;16.02;4.17;;;;;;;23.18;89.66;100410.30;1752996;80;21117;-61
2021/06/20 08:13:21;;;;;;;17.07;4.35;;;;;;;23.09;89.30;100380.58;1751580;80;21021;-60
2021/06/20 08:15:49;;;;;;;18.23;4.67;;;;;;;23.06;90.67;100395.91;1753572;80;21589;-61
2021/06/20 08:18:18;;;;;;;19.12;3.55;;;;;;;22.98;86.64;100391.16;1748618;80;21467;-61
2021/06/20 08:20:45;;;;;;;15.18;3.92;;;;;;;22.85;86.36;100395.55;1751214;80;20976;-61
2021/06/20 08:23:11;;;;;;;18.60;3.33;;;;;;;22.76;89.95;100392.31;1746963;80;21000;-61
2021/06/20 08:25:39;;;;;;;18.27;4.10;;;;;;;22.73;92.20;100378.94;1742217;80;21511;-59
2021/06/20 08:28:05;;;;;;;26.73;4.95;;;;;;;22.75;92.48;100397.42;1753113;80;21814;-60
2021/06/20 08:30:32;;;;;;;17.52;3.80;;;;;;;22.75;91.63;100385.13;1751036;80;21449;-60
2021/06/20 08:32:59;;;;;;;26.73;4.53;;;;;;;22.77;92.31;100385.84;1751907;80;20978;-61
2021/06/20 08:35:25;;;;;;;16.70;4.17;;;;;;;22.80;94.27;100386.07;1751562;80;20917;-60
2021/06/20 08:37:52;;;;;;;26.42;3.87;;;;;;;22.85;95.83;100389.23;1747342;80;21526;-60
2021/06/20 08:40:18;;;;;;;25.25;4.15;;;;;;;22.93;92.26;100404.92;1752193;80;21805;-61
2021/06/20 08:42:46;;;;;;;16.90;3.83;;;;;;;22.92;90.27;100396.36;1749726;80;21088;-60
2021/06/20 08:45:14;;;;;;;23.35;3.58;;;;;;;22.97;91.29;100410.45;1754054;80;20977;-60
2021/06/20 08:47:42;;;;;;;22.42;3.75;;;;;;;23.01;93.98;100402.32;1753742;80;20948;-60
2021/06/20 08:50:10;;;;;;;22.30;4.00;;;;;;;23.08;92.86;100415.77;1752117;80;21477;-61
2021/06/20 08:52:37;;;;;;;23.65;3.92;;;;;;;23.12;90.96;100421.82;1751559;80;21103;-60
2021/06/20 08:55:06;;;;;;;30.85;4.37;;;;;;;23.13;91.76;100410.75;1754913;80;20989;-60
2021/06/20 08:57:37;;;;;;;30.92;4.45;;;;;;;23.17;92.46;100420.39;1755291;80;21351;-60
2021/06/20 09:00:10;;;;;;;31.62;4.58;;;;;;;23.23;90.34;100415.34;1749686;80;21007;-61
2021/06/20 09:02:37;;;;;;;27.27;3.87;;;;;;;23.31;91.91;100416.37;1748741;80;35435;-60
2021/06/20 09:05:07;;;;;;;21.93;3.98;;;;;;;23.44;88.93;100420.70;1749356;80;21241;-59
2021/06/20 09:07:40;;;;;;;24.43;3.75;;;;;;;23.53;89.74;100405.25;1749261;80;20884;-60
2021/06/20 09:10:14;;;;;;;23.12;3.95;;;;;;;23.61;86.14;100413.60;1750138;80;21044;-59
2021/06/20 09:12:58;;;;;;;33.53;5.47;;;;;;;23.70;87.24;100426.91;1751192;80;20917;-60
2021/06/20 09:15:30;;;;;;;29.12;4.67;;;;;;;23.73;84.63;100422.50;1752249;80;20965;-60
2021/06/20 09:18:01;;;;;;;29.52;4.40;;;;;;;23.74;86.60;100416.86;1749357;80;21751;-62
2021/06/20 09:20:43;;;;;;;19.75;3.75;;;;;;;23.85;87.11;100417.72;1747269;80;21002;-62
2021/06/20 09:23:14;;;;;;;24.20;3.20;;;;;;;23.94;85.08;100426.39;1752765;80;21089;-60
2021/06/20 09:25:43;;;;;;;23.67;3.05;;;;;;;23.96;85.81;100442.16;1753573;80;21009;-60
2021/06/20 09:28:11;;;;;;;24.40;3.25;;;;;;;23.98;83.67;100429.70;1749118;80;21445;-61
2021/06/20 09:30:48;;;;;;;25.65;3.40;;;;;;;24.01;83.25;100428.94;1751234;80;21968;-61
2021/06/20 09:33:16;;;;;;;21.33;3.85;;;;;;;24.08;84.87;100436.02;1752488;80;21020;-59
2021/06/20 09:35:53;;;;;;;19.85;2.55;;;;;;;24.18;83.69;100424.54;1745615;80;21367;-60
2021/06/20 09:38:26;;;;;;;18.02;3.00;;;;;;;24.26;83.08;100429.27;1749556;80;21039;-60
2021/06/20 09:41:11;;;;;;;14.75;3.50;;;;;;;24.32;80.44;100420.96;1755264;80;20929;-60
2021/06/20 09:43:52;;;;;;;18.05;3.15;;;;;;;24.38;81.45;100418.09;1754906;80;21470;-60
2021/06/20 09:46:19;;;;;;;19.75;2.98;;;;;;;24.44;80.82;100409.29;1746652;80;20949;-60
2021/06/20 09:48:47;;;;;;;21.15;3.35;;;;;;;24.55;81.42;100406.32;1750340;80;21442;-60
2021/06/20 09:51:20;;;;;;;16.52;3.77;;;;;;;24.59;80.83;100410.47;1750872;80;21344;-59
2021/06/20 09:53:48;;;;;;;29.23;3.83;;;;;;;24.56;80.28;100406.67;1746680;80;20976;-60
2021/06/20 09:56:19;;;;;;;34.88;3.80;;;;;;;24.58;79.28;100403.27;1750712;80;21549;-60
2021/06/20 09:58:49;;;;;;;20.40;3.65;;;;;;;24.57;80.28;100393.33;1745379;80;21055;-60
2021/06/20 10:01:17;;;;;;;24.25;3.58;;;;;;;24.57;80.90;100387.84;1756450;80;21520;-61
2021/06/20 10:03:44;;;;;;;21.85;3.25;;;;;;;24.57;79.73;100385.63;1752214;80;20964;-61
2021/06/20 10:06:12;;;;;;;25.50;2.90;;;;;;;24.59;79.89;100384.97;1751148;80;20875;-60
2021/06/20 10:08:41;;;;;;;29.67;3.80;;;;;;;24.55;78.71;100381.66;1748682;80;21655;-60
2021/06/20 10:11:07;;;;;;;25.75;3.65;;;;;;;24.54;80.41;100383.20;1757529;80;20988;-61
2021/06/20 10:13:35;;;;;;;24.05;4.08;;;;;;;24.50;78.93;100371.67;1744669;80;21405;-60
2021/06/20 10:16:24;;;;;;;28.95;3.70;;;;;;;24.42;79.14;100377.05;1755036;80;21015;-60
2021/06/20 10:19:15;;;;;;;28.42;3.40;;;;;;;24.37;79.65;100373.91;1747366;80;21389;-60
2021/06/20 10:21:46;;;;;;;23.75;3.30;;;;;;;24.30;80.18;100378.64;1754301;80;21115;-60
2021/06/20 10:24:18;;;;;;;28.62;4.42;;;;;;;24.30;80.66;100367.69;1750068;80;21075;-62
2021/06/20 10:27:04;;;;;;;24.63;3.80;;;;;;;24.26;79.25;100376.34;1750461;80;21335;-60
2021/06/20 10:29:34;;;;;;;35.15;4.33;;;;;;;24.18;80.40;100367.52;1750043;80;21583;-61
2021/06/20 10:32:17;;;;;;;32.55;4.15;;;;;;;24.15;81.01;100371.94;1760240;80;20912;-60
2021/06/20 10:34:58;;;;;;;37.45;4.47;;;;;;;24.18;81.33;100377.11;1749076;80;21098;-61
2021/06/20 10:37:29;;;;;;;29.80;4.70;;;;;;;24.24;80.93;100379.26;1744937;80;21957;-60
2021/06/20 10:39:56;;;;;;;32.58;4.80;;;;;;;24.26;80.82;100379.09;1754700;80;21427;-60
2021/06/20 10:42:36;;;;;;;39.80;4.30;;;;;;;24.28;80.61;100365.61;1746334;80;20904;-59
2021/06/20 10:45:07;;;;;;;40.12;4.58;;;;;;;24.33;81.80;100372.01;1752416;80;21570;-61
2021/06/20 10:47:40;;;;;;;37.63;4.08;;;;;;;24.43;81.77;100367.84;1756308;80;20984;-59
2021/06/20 10:50:14;;;;;;;36.28;5.00;;;;;;;24.54;80.47;100367.61;1753675;80;21027;-60
2021/06/20 10:52:56;;;;;;;41.42;5.47;;;;;;;24.61;80.79;100376.92;1752789;80;24430;-60
2021/06/20 10:55:23;;;;;;;40.98;4.85;;;;;;;24.68;79.58;100377.70;1750165;80;20918;-60
2021/06/20 10:57:52;;;;;;;41.25;4.92;;;;;;;24.64;79.12;100371.65;1747818;80;21160;-59
2021/06/20 11:00:32;;;;;;;43.60;5.08;;;;;;;24.69;79.83;100371.19;1752513;80;21836;-59
2021/06/20 11:03:14;;;;;;;38.08;5.25;;;;;;;24.79;78.66;100378.85;1749792;80;52124;-60
2021/06/20 11:05:55;;;;;;;47.55;5.97;;;;;;;24.93;78.28;100373.33;1752469;80;20917;-59
2021/06/20 11:08:50;;;;;;;41.33;5.40;;;;;;;25.02;76.88;100361.92;1748999;80;21454;-60
2021/06/20 11:11:24;;;;;;;49.48;5.30;;;;;;;25.08;76.26;100362.66;1748758;80;22796;-62
2021/06/20 11:14:06;;;;;;;45.60;5.65;;;;;;;25.16;76.90;100366.86;1753219;80;21141;-60
2021/06/20 11:16:50;;;;;;;43.48;7.00;;;;;;;25.31;75.74;100367.63;1753494;80;21018;-60
2021/06/20 11:19:25;;;;;;;47.03;6.95;;;;;;;25.45;74.80;100367.59;1745626;80;21393;-54
2021/06/20 11:22:01;;;;;;;;;;;;;;;25.56;74.34;100359.63;1754034;80;20929;-55